createdAt,value
2023-04-17T00:02:41.230Z,99507.19
2023-04-17T00:05:28.116Z,99514.78
2023-04-17T00:08:14.781Z,99473.94
2023-04-17T00:11:08.075Z,99501.59
2023-04-17T00:13:54.873Z,99486.84
2023-04-17T00:16:41.321Z,99466.03
2023-04-17T00:19:27.980Z,99472.34
2023-04-17T00:22:14.043Z,99507.00
2023-04-17T00:25:00.853Z,99487.81
2023-04-17T00:27:47.092Z,99507.63
2023-04-17T00:30:33.375Z,99492.91
2023-04-17T00:33:19.662Z,99487.81
2023-04-17T00:36:06.469Z,99505.16
2023-04-17T00:38:52.751Z,99455.75
2023-04-17T00:41:38.982Z,99468.78
2023-04-17T00:44:25.492Z,99463.63
2023-04-17T00:47:12.878Z,99490.44
2023-04-17T00:49:59.522Z,99473.06
2023-04-17T00:52:47.451Z,99491.97
2023-04-17T00:55:35.547Z,99473.78
2023-04-17T00:58:22.349Z,99492.03
2023-04-17T01:01:09.307Z,99464.94
2023-04-17T01:03:56.387Z,99456.38
2023-04-17T01:06:43.231Z,99452.78
2023-04-17T01:09:30.767Z,99493.59
2023-04-17T01:12:21.355Z,99489.09
2023-04-17T01:15:08.100Z,99483.88
2023-04-17T01:17:54.650Z,99472.63
2023-04-17T01:20:41.173Z,99467.38
2023-04-17T01:23:28.252Z,99457.31
2023-04-17T01:26:25.579Z,99480.69
2023-04-17T01:29:12.749Z,99466.84
2023-04-17T01:31:59.241Z,99453.88
2023-04-17T01:34:45.797Z,99484.13
2023-04-17T01:37:32.465Z,99479.78
2023-04-17T01:40:18.785Z,99476.34
2023-04-17T01:43:05.314Z,99468.47
2023-04-17T01:45:51.393Z,99460.75
2023-04-17T01:48:37.968Z,99455.53
2023-04-17T01:51:24.424Z,99439.91
2023-04-17T01:54:11.259Z,99489.53
2023-04-17T01:56:57.804Z,99420.94
2023-04-17T01:59:44.679Z,99448.75
2023-04-17T02:02:30.861Z,99473.78
2023-04-17T02:05:17.297Z,99459.78
2023-04-17T02:08:03.936Z,99458.16
2023-04-17T02:10:50.354Z,99441.81
2023-04-17T02:13:36.978Z,99449.47
2023-04-17T02:16:23.712Z,99464.38
2023-04-17T02:19:10.063Z,99479.91
2023-04-17T02:21:56.925Z,99459.22
2023-04-17T02:24:43.176Z,99441.84
2023-04-17T02:27:29.928Z,99423.91
2023-04-17T02:30:16.458Z,99456.66
2023-04-17T02:33:03.328Z,99431.31
2023-04-17T02:35:50.537Z,99453.06
2023-04-17T02:38:42.191Z,99466.16
2023-04-17T02:41:28.690Z,99448.75
2023-04-17T02:44:15.251Z,99485.03
2023-04-17T02:47:01.415Z,99471.97
2023-04-17T02:49:51.643Z,99476.63
2023-04-17T02:52:38.112Z,99467.88
2023-04-17T02:55:24.939Z,99454.03
2023-04-17T02:58:11.364Z,99440.94
2023-04-17T03:01:04.141Z,99467.03
2023-04-17T03:03:55.772Z,99461.69
2023-04-17T03:06:43.087Z,99453.94
2023-04-17T03:09:30.962Z,99437.34
2023-04-17T03:12:17.477Z,99487.69
2023-04-17T03:15:04.064Z,99451.44
2023-04-17T03:17:50.751Z,99470.47
2023-04-17T03:20:37.144Z,99460.13
2023-04-17T03:23:23.970Z,99480.88
2023-04-17T03:26:10.263Z,99439.19
2023-04-17T03:28:57.126Z,99485.09
2023-04-17T03:31:43.664Z,99458.16
2023-04-17T03:34:31.541Z,99481.53
2023-04-17T03:37:18.541Z,99493.72
2023-04-17T03:40:06.556Z,99454.75
2023-04-17T03:42:53.419Z,99413.41
2023-04-17T03:45:39.944Z,99449.00
2023-04-17T03:48:26.381Z,99479.16
2023-04-17T03:51:13.137Z,99498.22
2023-04-17T03:53:59.522Z,99478.31
2023-04-17T03:56:46.429Z,99479.03
2023-04-17T03:59:33.386Z,99472.97
2023-04-17T04:02:20.111Z,99475.47
2023-04-17T04:05:08.343Z,99502.16
2023-04-17T04:07:56.115Z,99473.69
2023-04-17T04:10:49.299Z,99476.25
2023-04-17T04:13:41.664Z,99470.78
2023-04-17T04:16:28.492Z,99503.94
2023-04-17T04:19:24.176Z,99478.78
2023-04-17T04:22:13.528Z,99424.84
2023-04-17T04:25:06.887Z,99474.97
2023-04-17T04:28:06.266Z,99504.41
2023-04-17T04:30:53.049Z,99469.88
2023-04-17T04:33:41.397Z,99471.53
2023-04-17T04:36:30.237Z,99490.72
2023-04-17T04:39:39.833Z,99475.94
2023-04-17T04:42:29.349Z,99519.25
2023-04-17T04:45:31.954Z,99501.91
2023-04-17T04:48:21.223Z,99476.88
2023-04-17T04:51:07.723Z,99452.78
2023-04-17T04:53:54.309Z,99468.16
2023-04-17T04:56:44.810Z,99482.94
2023-04-17T04:59:32.658Z,99506.31
2023-04-17T05:02:46.953Z,99495.03
2023-04-17T05:05:34.167Z,99503.75
2023-04-17T05:08:21.415Z,99532.34
2023-04-17T05:11:16.690Z,99513.25
2023-04-17T05:14:03.397Z,99508.16
2023-04-17T05:16:55.586Z,99516.88
2023-04-17T05:19:42.441Z,99501.16
2023-04-17T05:22:30.061Z,99510.56
2023-04-17T05:25:23.639Z,99466.28
2023-04-17T05:28:11.025Z,99495.09
2023-04-17T05:30:57.760Z,99505.41
2023-04-17T05:33:52.667Z,99458.72
2023-04-17T05:36:39.618Z,99525.59
2023-04-17T05:39:25.863Z,99543.72
2023-04-17T05:42:12.281Z,99523.94
2023-04-17T05:44:59.217Z,99518.66
2023-04-17T05:47:45.903Z,99521.97
2023-04-17T05:50:32.150Z,99545.47
2023-04-17T05:53:18.645Z,99517.09
2023-04-17T05:56:10.348Z,99516.94
2023-04-17T05:58:57.095Z,99489.28
2023-04-17T06:01:44.515Z,99521.44
2023-04-17T06:04:32.027Z,99542.22
2023-04-17T06:07:19.494Z,99526.72
2023-04-17T06:10:06.817Z,99522.41
2023-04-17T06:12:53.806Z,99546.75
2023-04-17T06:15:40.815Z,99521.53
2023-04-17T06:18:28.472Z,99517.88
2023-04-17T06:21:14.986Z,99537.19
2023-04-17T06:24:01.431Z,99546.09
2023-04-17T06:26:48.137Z,99534.56
2023-04-17T06:29:35.005Z,99557.38
2023-04-17T06:32:23.212Z,99553.06
2023-04-17T06:35:11.435Z,99560.94
2023-04-17T06:38:12.435Z,99532.50
2023-04-17T06:40:58.931Z,99568.00
2023-04-17T06:43:45.344Z,99566.31
2023-04-17T06:46:33.738Z,99555.78
2023-04-17T06:49:23.421Z,99561.75
2023-04-17T06:52:10.158Z,99565.97
2023-04-17T06:54:56.709Z,99572.72
2023-04-17T06:57:43.366Z,99571.63
2023-04-17T07:00:30.164Z,99572.38
2023-04-17T07:03:21.617Z,99544.69
2023-04-17T07:06:09.368Z,99555.19
2023-04-17T07:08:55.994Z,99569.84
2023-04-17T07:11:42.607Z,99584.31
2023-04-17T07:14:28.899Z,99568.72
2023-04-17T07:17:15.457Z,99579.09
2023-04-17T07:20:01.673Z,99580.88
2023-04-17T07:22:49.887Z,99577.25
2023-04-17T07:25:36.355Z,99578.09
2023-04-17T07:28:23.180Z,99585.19
2023-04-17T07:31:09.704Z,99574.88
2023-04-17T07:33:55.993Z,99585.25
2023-04-17T07:36:42.559Z,99560.09
2023-04-17T07:39:31.531Z,99569.00
2023-04-17T07:42:18.253Z,99589.78
2023-04-17T07:45:06.032Z,99568.31
2023-04-17T07:47:53.117Z,99572.50
2023-04-17T07:50:39.497Z,99573.47
2023-04-17T07:53:28.531Z,99587.50
2023-04-17T07:56:14.874Z,99602.19
2023-04-17T07:59:02.464Z,99601.63
2023-04-17T08:01:49.584Z,99575.84
2023-04-17T08:04:36.190Z,99584.44
2023-04-17T08:07:22.875Z,99596.66
2023-04-17T08:10:09.985Z,99586.56
2023-04-17T08:12:56.739Z,99606.69
2023-04-17T08:15:43.927Z,99612.84
2023-04-17T08:18:32.278Z,99595.22
2023-04-17T08:21:18.850Z,99594.06
2023-04-17T08:24:05.289Z,99594.19
2023-04-17T08:26:51.617Z,99620.19
2023-04-17T08:29:39.753Z,99621.38
2023-04-17T08:32:25.977Z,99619.56
2023-04-17T08:35:14.378Z,99620.53
2023-04-17T08:38:00.933Z,99618.16
2023-04-17T08:40:52.001Z,99623.34
2023-04-17T08:43:40.214Z,99619.91
2023-04-17T08:46:27.336Z,99603.38
2023-04-17T08:49:14.940Z,99616.41
2023-04-17T08:52:05.552Z,99614.19
2023-04-17T08:54:52.089Z,99624.56
2023-04-17T08:58:04.283Z,99628.06
2023-04-17T09:00:50.885Z,99598.69
2023-04-17T09:03:47.174Z,99626.44
2023-04-17T09:06:54.093Z,99625.69
2023-04-17T09:09:46.736Z,99625.72
2023-04-17T09:12:33.338Z,99620.63
2023-04-17T09:15:20.121Z,99621.50
2023-04-17T09:18:21.458Z,99624.16
2023-04-17T09:21:08.819Z,99614.63
2023-04-17T09:23:59.313Z,99626.84
2023-04-17T09:26:45.728Z,99627.56
2023-04-17T09:29:31.968Z,99629.50
2023-04-17T09:32:18.360Z,99614.03
2023-04-17T09:35:06.100Z,99629.50
2023-04-17T09:37:54.575Z,99628.19
2023-04-17T09:40:42.105Z,99630.78
2023-04-17T09:43:43.203Z,99629.94
2023-04-17T09:46:38.107Z,99634.50
2023-04-17T09:49:40.473Z,99634.69
2023-04-17T09:52:28.668Z,99622.72
2023-04-17T09:55:16.673Z,99636.56
2023-04-17T09:58:05.276Z,99629.63
2023-04-17T10:00:52.172Z,99625.31
2023-04-17T10:03:41.858Z,99619.25
2023-04-17T10:06:31.003Z,99632.19
2023-04-17T10:09:17.402Z,99624.41
2023-04-17T10:12:05.339Z,99619.13
2023-04-17T10:14:52.756Z,99604.53
2023-04-17T10:17:39.337Z,99622.63
2023-04-17T10:20:28.224Z,99612.28
2023-04-17T10:23:34.638Z,99613.19
2023-04-17T10:26:27.945Z,99608.19
2023-04-17T10:29:14.776Z,99612.50
2023-04-17T10:32:10.590Z,99603.75
2023-04-17T10:34:59.230Z,99595.88
2023-04-17T10:38:01.854Z,99595.81
2023-04-17T10:40:50.722Z,99589.66
2023-04-17T10:43:44.533Z,99592.44
2023-04-17T10:46:31.091Z,99594.13
2023-04-17T10:49:17.842Z,99598.53
2023-04-17T10:52:04.196Z,99588.06
2023-04-17T10:55:07.909Z,99589.03
2023-04-17T10:57:59.944Z,99574.25
2023-04-17T11:00:51.230Z,99588.28
2023-04-17T11:03:38.878Z,99581.34
2023-04-17T11:06:28.850Z,99583.94
2023-04-17T11:09:16.209Z,99573.56
2023-04-17T11:12:03.229Z,99572.69
2023-04-17T11:14:49.439Z,99577.84
2023-04-17T11:17:40.116Z,99580.41
2023-04-17T11:20:35.816Z,99583.00
2023-04-17T11:23:22.975Z,99567.41
2023-04-17T11:26:09.777Z,99580.38
2023-04-17T11:28:56.314Z,99577.00
2023-04-17T11:31:43.856Z,99572.69
2023-04-17T11:34:30.729Z,99570.94
2023-04-17T11:37:17.377Z,99572.69
2023-04-17T11:40:10.800Z,99572.69
2023-04-17T11:42:57.590Z,99563.13
2023-04-17T11:45:45.990Z,99554.50
2023-04-17T11:48:32.836Z,99574.34
2023-04-17T11:51:19.362Z,99582.09
2023-04-17T11:54:05.825Z,99561.28
2023-04-17T11:57:07.110Z,99563.78
2023-04-17T11:59:53.709Z,99582.00
2023-04-17T12:02:40.426Z,99568.97
2023-04-17T12:05:28.576Z,99575.19
2023-04-17T12:08:15.569Z,99574.25
2023-04-17T12:11:02.006Z,99577.72
2023-04-17T12:13:50.014Z,99556.91
2023-04-17T12:16:36.502Z,99570.75
2023-04-17T12:19:25.475Z,99575.00
2023-04-17T12:22:11.723Z,99558.44
2023-04-17T12:24:58.324Z,99564.47
2023-04-17T12:27:45.319Z,99565.28
2023-04-17T12:30:35.952Z,99563.34
2023-04-17T12:33:22.881Z,99562.78
2023-04-17T12:36:09.740Z,99561.63
2023-04-17T12:38:56.215Z,99563.38
2023-04-17T12:41:42.631Z,99550.75
2023-04-17T12:44:29.124Z,99554.06
2023-04-17T12:47:16.544Z,99540.25
2023-04-17T12:50:06.878Z,99558.25
2023-04-17T12:52:53.201Z,99565.44
2023-04-17T12:55:44.247Z,99562.16
2023-04-17T12:58:31.117Z,99538.91
2023-04-17T13:01:17.577Z,99557.13
2023-04-17T13:04:04.621Z,99551.03
2023-04-17T13:06:51.446Z,99556.25
2023-04-17T13:09:38.040Z,99545.00
2023-04-17T13:12:25.851Z,99533.75
2023-04-17T13:15:15.518Z,99554.50
2023-04-17T13:18:02.699Z,99561.38
2023-04-17T13:20:49.508Z,99541.38
2023-04-17T13:23:35.893Z,99553.59
2023-04-17T13:26:22.148Z,99562.25
2023-04-17T13:29:08.584Z,99554.50
2023-04-17T13:31:55.069Z,99538.97
2023-04-17T13:34:41.826Z,99541.53
2023-04-17T13:37:28.274Z,99544.97
2023-04-17T13:40:17.216Z,99549.31
2023-04-17T13:43:05.990Z,99557.94
2023-04-17T13:45:54.941Z,99547.56
2023-04-17T13:48:42.920Z,99551.00
2023-04-17T13:51:29.699Z,99553.59
2023-04-17T13:54:16.111Z,99550.09
2023-04-17T13:57:02.272Z,99539.75
2023-04-17T13:59:48.834Z,99540.63
2023-04-17T14:02:35.660Z,99550.19
2023-04-17T14:05:22.259Z,99538.03
2023-04-17T14:08:08.657Z,99538.03
2023-04-17T14:10:54.858Z,99544.13
2023-04-17T14:13:41.084Z,99541.53
2023-04-17T14:16:27.586Z,99543.28
2023-04-17T14:19:15.018Z,99535.50
2023-04-17T14:22:01.806Z,99536.31
2023-04-17T14:24:48.672Z,99531.16
2023-04-17T14:27:36.278Z,99464.56
2023-04-17T14:30:22.922Z,99527.69
2023-04-17T14:33:09.195Z,99525.97
2023-04-17T14:35:56.804Z,99514.72
2023-04-17T14:38:42.973Z,99517.34
2023-04-17T14:41:31.635Z,99519.94
2023-04-17T14:44:18.226Z,99526.00
2023-04-17T14:47:04.805Z,99530.31
2023-04-17T14:49:51.829Z,99526.84
2023-04-17T14:52:38.378Z,99526.84
2023-04-17T14:55:25.148Z,99531.16
2023-04-17T14:58:11.496Z,99533.75
2023-04-17T15:00:57.846Z,99532.00
2023-04-17T15:03:48.141Z,99525.94
2023-04-17T15:06:35.404Z,99526.81
2023-04-17T15:09:21.957Z,99527.66
2023-04-17T15:12:08.581Z,99519.03
2023-04-17T15:14:56.436Z,99527.66
2023-04-17T15:17:42.971Z,99531.13
2023-04-17T15:20:29.702Z,99506.91
2023-04-17T15:23:17.613Z,99524.22
2023-04-17T15:26:04.621Z,99534.56
2023-04-17T15:28:51.093Z,99533.72
2023-04-17T15:31:37.989Z,99531.97
2023-04-17T15:34:24.957Z,99533.72
2023-04-17T15:37:12.162Z,99530.25
2023-04-17T15:39:58.702Z,99525.06
2023-04-17T15:42:45.009Z,99530.25
2023-04-17T15:45:31.948Z,99530.19
2023-04-17T15:48:18.297Z,99526.75
2023-04-17T15:51:04.919Z,99535.41
2023-04-17T15:53:51.208Z,99532.81
2023-04-17T15:56:37.555Z,99525.03
2023-04-17T15:59:24.041Z,99526.78
2023-04-17T16:02:14.009Z,99518.91
2023-04-17T16:05:00.663Z,99527.59
2023-04-17T16:07:47.561Z,99536.25
2023-04-17T16:10:34.544Z,99528.44
2023-04-17T16:13:21.044Z,99515.47
2023-04-17T16:16:08.045Z,99521.53
2023-04-17T16:18:54.609Z,99533.63
2023-04-17T16:21:41.303Z,99526.72
2023-04-17T16:24:27.592Z,99508.50
2023-04-17T16:27:13.832Z,99520.66
2023-04-17T16:30:00.448Z,99523.25
2023-04-17T16:32:48.789Z,99525.84
2023-04-17T16:35:36.302Z,99520.66
2023-04-17T16:38:22.909Z,99531.91
2023-04-17T16:41:09.289Z,99527.53
2023-04-17T16:43:55.373Z,99527.50
2023-04-17T16:46:59.286Z,99537.88
2023-04-17T16:49:47.953Z,99533.50
2023-04-17T16:52:34.920Z,99541.25
2023-04-17T16:55:21.205Z,99526.56
2023-04-17T16:58:07.616Z,99535.19
2023-04-17T17:00:54.151Z,99526.56
2023-04-17T17:03:43.172Z,99537.69
2023-04-17T17:06:31.259Z,99547.22
2023-04-17T17:09:17.825Z,99546.38
2023-04-17T17:12:04.606Z,99548.94
2023-04-17T17:14:51.426Z,99555.84
2023-04-17T17:17:37.759Z,99561.94
2023-04-17T17:20:24.386Z,99558.41
2023-04-17T17:23:10.656Z,99559.25
2023-04-17T17:25:57.011Z,99558.31
2023-04-17T17:28:43.462Z,99572.09
2023-04-17T17:31:30.061Z,99563.41
2023-04-17T17:34:25.971Z,99559.09
2023-04-17T17:37:13.632Z,99561.69
2023-04-17T17:39:59.991Z,99569.34
2023-04-17T17:42:47.774Z,99542.44
2023-04-17T17:45:37.394Z,99565.91
2023-04-17T17:48:23.771Z,99567.66
2023-04-17T17:51:10.137Z,99552.81
2023-04-17T17:53:56.624Z,99567.50
2023-04-17T17:56:43.140Z,99566.59
2023-04-17T17:59:29.796Z,99576.09
2023-04-17T18:02:16.677Z,99578.63
2023-04-17T18:05:03.343Z,99563.13
2023-04-17T18:07:50.591Z,99575.13
2023-04-17T18:10:37.401Z,99591.59
2023-04-17T18:13:24.145Z,99581.19
2023-04-17T18:16:10.696Z,99568.19
2023-04-17T18:18:59.774Z,99580.31
2023-04-17T18:21:47.700Z,99584.53
2023-04-17T18:24:34.922Z,99577.59
2023-04-17T18:27:21.875Z,99580.06
2023-04-17T18:30:09.366Z,99584.28
2023-04-17T18:32:55.968Z,99587.78
2023-04-17T18:35:42.545Z,99600.75
2023-04-17T18:38:29.302Z,99598.88
2023-04-17T18:41:16.075Z,99590.19
2023-04-17T18:44:02.666Z,99604.00
2023-04-17T18:46:49.133Z,99602.19
2023-04-17T18:49:35.763Z,99609.13
2023-04-17T18:52:22.269Z,99603.91
2023-04-17T18:55:09.398Z,99609.13
2023-04-17T18:57:55.648Z,99621.13
2023-04-17T19:00:42.188Z,99622.72
2023-04-17T19:03:28.906Z,99620.22
2023-04-17T19:06:15.452Z,99625.25
2023-04-17T19:09:01.774Z,99620.31
2023-04-17T19:11:48.279Z,99626.03
2023-04-17T19:14:35.306Z,99603.47
2023-04-17T19:17:21.492Z,99615.69
2023-04-17T19:20:08.852Z,99623.44
2023-04-17T19:22:57.083Z,99618.28
2023-04-17T19:25:43.387Z,99625.03
2023-04-17T19:28:29.865Z,99614.75
2023-04-17T19:31:16.363Z,99624.06
2023-04-17T19:34:02.699Z,99617.28
2023-04-17T19:36:49.298Z,99619.09
2023-04-17T19:39:36.038Z,99619.94
2023-04-17T19:42:22.488Z,99624.00
2023-04-17T19:45:09.431Z,99618.97
2023-04-17T19:47:57.087Z,99603.22
2023-04-17T19:50:43.757Z,99621.44
2023-04-17T19:53:32.184Z,99606.66
2023-04-17T19:56:18.920Z,99615.38
2023-04-17T19:59:05.941Z,99614.50
2023-04-17T20:01:52.526Z,99611.63
2023-04-17T20:04:39.645Z,99611.56
2023-04-17T20:07:26.277Z,99589.94
2023-04-17T20:10:13.270Z,99595.47
2023-04-17T20:12:59.584Z,99610.91
2023-04-17T20:15:45.987Z,99610.81
2023-04-17T20:18:33.742Z,99609.00
2023-04-17T20:21:20.210Z,99606.47
2023-04-17T20:24:06.769Z,99606.28
2023-04-17T20:26:53.216Z,99606.16
2023-04-17T20:29:39.763Z,99601.94
2023-04-17T20:32:26.001Z,99576.63
2023-04-17T20:35:12.684Z,99590.22
2023-04-17T20:37:59.008Z,99599.69
2023-04-17T20:40:45.194Z,99599.50
2023-04-17T20:43:32.576Z,99580.88
2023-04-17T20:46:19.042Z,99591.00
2023-04-17T20:49:05.728Z,99601.03
2023-04-17T20:51:52.194Z,99592.38
2023-04-17T20:54:38.524Z,99590.59
2023-04-17T20:57:25.282Z,99588.84
2023-04-17T21:00:12.471Z,99595.66
2023-04-17T21:02:59.089Z,99595.38
2023-04-17T21:05:45.584Z,99597.81
2023-04-17T21:08:31.807Z,99594.44
2023-04-17T21:11:18.251Z,99601.81
2023-04-17T21:14:04.724Z,99599.94
2023-04-17T21:16:54.340Z,99607.50
2023-04-17T21:19:41.202Z,99581.53
2023-04-17T21:22:27.711Z,99599.69
2023-04-17T21:25:14.634Z,99577.78
2023-04-17T21:28:01.272Z,99567.34
2023-04-17T21:30:48.080Z,99590.91
2023-04-17T21:33:34.667Z,99588.28
2023-04-17T21:36:22.516Z,99583.78
2023-04-17T21:39:09.573Z,99588.00
2023-04-17T21:41:57.379Z,99588.44
2023-04-17T21:44:43.708Z,99588.84
2023-04-17T21:47:30.170Z,99592.66
2023-04-17T21:50:16.783Z,99587.09
2023-04-17T21:53:03.501Z,99568.31
2023-04-17T21:55:49.922Z,99574.06
2023-04-17T21:58:36.140Z,99589.31
2023-04-17T22:01:22.426Z,99582.19
2023-04-17T22:04:09.043Z,99582.78
2023-04-17T22:06:55.472Z,99585.13
2023-04-17T22:09:42.183Z,99579.75
2023-04-17T22:12:28.762Z,99569.31
2023-04-17T22:15:14.908Z,99579.47
2023-04-17T22:18:01.688Z,99550.81
2023-04-17T22:20:48.283Z,99573.38
2023-04-17T22:23:34.468Z,99571.56
2023-04-17T22:26:21.497Z,99567.16
2023-04-17T22:29:08.176Z,99575.50
2023-04-17T22:31:54.478Z,99577.84
2023-04-17T22:34:42.418Z,99566.41
2023-04-17T22:37:29.875Z,99555.75
2023-04-17T22:40:16.154Z,99564.31
2023-04-17T22:43:02.837Z,99564.03
2023-04-17T22:45:49.277Z,99556.88
2023-04-17T22:48:35.714Z,99575.78
2023-04-17T22:51:22.372Z,99572.97
2023-04-17T22:54:21.571Z,99571.19
2023-04-17T22:57:10.633Z,99565.03
2023-04-17T22:59:57.350Z,99563.19
2023-04-17T23:02:43.677Z,99563.00
2023-04-17T23:05:30.339Z,99541.91
2023-04-17T23:08:16.708Z,99563.88
2023-04-17T23:11:04.792Z,99558.75
2023-04-17T23:13:51.393Z,99558.06
2023-04-17T23:16:37.706Z,99541.22
2023-04-17T23:19:24.446Z,99532.56
2023-04-17T23:22:10.887Z,99559.28
2023-04-17T23:25:00.199Z,99554.66
2023-04-17T23:27:46.550Z,99533.59
2023-04-17T23:30:33.044Z,99552.84
2023-04-17T23:33:19.189Z,99543.38
2023-04-17T23:36:06.563Z,99523.56
2023-04-17T23:38:53.704Z,99544.78
2023-04-17T23:41:42.644Z,99547.72
2023-04-17T23:44:28.984Z,99540.13
2023-04-17T23:47:15.988Z,99545.69
2023-04-17T23:50:03.529Z,99537.03
2023-04-17T23:52:50.224Z,99535.94
2023-04-17T23:55:36.770Z,99542.06
2023-04-17T23:58:23.117Z,99529.47
